Danner, Oregon
Current Conditions -  °F | °C
As of 1:15 PM on Thursday 25 Dec 2014 (Local Time) from KMAN Reporting Station
Clear Clear  
Wind Chill: -2°   Ceiling: Unl
Heat Index:   Visibility: 10mi
Dew Point: -3°   Wind: 17mph
Humidity: 65%   Direction: 310°NW
Pressure: 29.97"   Gusts: 24mph
Location:  42.5961°N, 117.569°W
Report Text: KMAN 252015Z AUTO 31015G21KT 10SM CLR 03/M03 A2997 RMK AO1
Loading
Personal Weather Stations






























Interactive Weather Map New forecast layout! Learn more

10-Day Weather Forecast

Advertisements
Track Severe Weather on mobile